Nearby METAR Reports

 

KSEE - San Diego/Santee, California, USA
Distance from station: E 4mi, 6km
Updated: Wed, 12-May-2021 1:35am PDT
Overcast
Overcast
 Wind from calm
Wind: Calm
Temperature: 59°F , 15°C
Dew Point: 54°F , 12°C
Humidity: 82%
Barometer: 29.98 inHg , 1015.2 hPa
Clouds: Overcast
Visibility: 10 miles , 16 km
Cloud details: Overcast 1200 ft
2021/05/12 08:35 KSEE 120835Z AUTO 00000KT 10SM OVC012 15/12 A2998 RMK AO2
KMYF - San Diego/Mntgmy, California, USA
Distance from station: W 6mi, 10km
Updated: Wed, 12-May-2021 12:53am PDT
Overcast
Overcast
 Wind from calm
Wind: Calm
Temperature: 61°F , 16°C
Dew Point: 54°F , 12°C
Humidity: 77%
Barometer: 29.99 inHg , 1015.6 hPa
Clouds: Overcast
Visibility: 10 miles , 16 km
Cloud details: Overcast 1100 ft
2021/05/12 07:53 KMYF 120753Z AUTO 00000KT 10SM OVC011 16/12 A2999 RMK AO2 SLP151 T01560122 402060139
 
KNKX - Miramar Nas/San, California, USA
Distance from station: WNW 7mi, 11km
Updated: Wed, 12-May-2021 12:55am PDT
Overcast
Overcast
 Wind from calm
Wind: Calm
Temperature: 61°F , 16°C
Dew Point: 54°F , 12°C
Humidity: 77%
Barometer: 29.98 inHg , 1015.2 hPa
Clouds: Overcast
Visibility: 10 miles , 16 km
Cloud details: Overcast 1100 ft
2021/05/12 07:55 KNKX 120755Z 00000KT 10SM OVC011 16/12 A2998 RMK AO2 SLP149 T01560122 402170094 $
KSAN - San Diego, California, USA
Distance from station: WSW 11mi, 17km
Updated: Wed, 12-May-2021 12:51am PDT
Mostly cloudy
Mostly cloudy
 Wind from calm
Wind: Calm
Temperature: 63°F , 17°C
Dew Point: 54°F , 12°C
Humidity: 73%
Barometer: 30.00 inHg , 1015.9 hPa
Clouds: Mostly cloudy
Visibility: 10 miles , 16 km
Cloud details: Mostly cloudy 1500 ft
2021/05/12 07:51 KSAN 120751Z 00000KT 10SM BKN015 17/12 A3000 RMK AO2 SLP158 T01720122 401940161
 
KNZY - North Island Nas, California, USA
Distance from station: SW 13mi, 22km
Updated: Wed, 12-May-2021 12:52am PDT
Mostly cloudy
Mostly cloudy
 Wind from NW
Wind: NW 3 mph , 6 km/h
Temperature: 59°F , 15°C
Dew Point: 54°F , 12°C
Humidity: 82%
Barometer: 29.98 inHg , 1015.2 hPa
Clouds: Mostly cloudy
Visibility: 10 miles , 16 km
Cloud details: Mostly cloudy 1400 ft
2021/05/12 07:52 KNZY 120752Z 31003KT 10SM BKN014 15/12 A2998 RMK AO2 SLP152 T01500122 401830144
KRNM - Ramona, California, USA
Distance from station: NNE 16mi, 26km
Updated: Wed, 12-May-2021 1:45am PDT
Mist, Partly cloudy
Mist, Partly cloudy
 Wind from calm
Wind: Calm
Temperature: 50°F , 10°C
Dew Point: 48°F , 9°C
Humidity: 94%
Barometer: 29.98 inHg , 1015.2 hPa
Summary: Mist
Clouds: Partly cloudy
Visibility: 5 miles , 8 km
Cloud details: Partly cloudy 1100 ft
2021/05/12 08:45 KRNM 120845Z AUTO 00000KT 5SM BR SCT011 10/09 A2998 RMK AO2 T01000089
 
KSDM - San Diego/Brown, California, USA
Distance from station: S 16mi, 26km
Updated: Wed, 12-May-2021 12:53am PDT
Overcast
Overcast
 Wind from calm
Wind: Calm
Temperature: 59°F , 15°C
Dew Point: 50°F , 10°C
Humidity: 72%
Barometer: 29.99 inHg , 1015.6 hPa
Clouds: Overcast
Visibility: 10 miles , 16 km
Cloud details: Overcast 1100 ft
2021/05/12 07:53 KSDM 120753Z AUTO 00000KT 10SM OVC011 15/10 A2999 RMK AO2 SLP151 T01500100 402220133
KNRS - Imperial Beach, California, USA
Distance from station: SSW 18mi, 29km
Updated: Wed, 12-May-2021 1:28am PDT
Overcast
Overcast
 
Barometer: 29.99 inHg , 1015.6 hPa
Clouds: Overcast
Visibility: 10 miles , 16 km
Cloud details: Overcast 1500 ft
2021/05/12 08:28 KNRS 120828Z AUTO 10SM OVC015 A2999 RMK AO2 $
 
MMTJ - Tijuana Intl Arp, Mexico
Distance from station: S 20mi, 32km
Updated: Wed, 12-May-2021 12:56am PDT
Overcast
Overcast
 Wind from calm
Wind: Calm
Temperature: 57°F , 14°C
Dew Point: 50°F , 10°C
Humidity: 77%
Barometer: 30.02 inHg , 1016.6 hPa
Clouds: Overcast
Visibility: 4 miles , 6 km
Cloud details: Overcast 1400 ft
2021/05/12 07:56 MMTJ 120756Z 00000KT 4SM OVC014 14/10 A3002 RMK 8/5// HZY MSGTX MMMX
KCRQ - Carlsbad, California, USA
Distance from station: NW 26mi, 43km
Updated: Wed, 12-May-2021 12:53am PDT
Overcast
Overcast
 Wind from NW
Wind: NW 3 mph , 6 km/h
Temperature: 61°F , 16°C
Dew Point: 54°F , 12°C
Humidity: 77%
Barometer: 29.98 inHg , 1015.2 hPa
Clouds: Overcast
Visibility: 10 miles , 16 km
Cloud details: Overcast 1100 ft
2021/05/12 07:53 KCRQ 120753Z AUTO 32003KT 10SM OVC011 16/12 A2998 RMK AO2 SLP149 T01610122 401890139
 
KOKB - Oceanside, California, USA
Distance from station: NW 33mi, 54km
Updated: Wed, 12-May-2021 12:52am PDT
Overcast
Overcast
 Wind from calm
Wind: Calm
Temperature: 63°F , 17°C
Dew Point: 55°F , 13°C
Humidity: 77%
Barometer: 29.97 inHg , 1014.9 hPa
Clouds: Overcast
Visibility: 9 miles , 14 km
Cloud details: Overcast 1400 ft
2021/05/12 07:52 KOKB 120752Z AUTO 00000KT 9SM OVC014 17/13 A2997 RMK AO2 SLP149 T01670128 402110133
KCZZ - Campo, California, USA
Distance from station: ESE 35mi, 56km
Updated: Mon, 26-Oct-2020 8:52am PDT
NOT Current

 Wind from NE
Wind: NE 14 mph , 22 km/h, Gust: 20 mph , 31 km/h
Temperature: 48°F , 9°C
Wind Chill: 42°F , 6°C
Dew Point: 27°F , -3°C
Humidity: 43%
Barometer: 29.99 inHg , 1015.6 hPa
2020/10/26 15:52 KCZZ 261552Z AUTO 05012G17KT 09/M03 A2999 RMK AO1 SLP140 T00891028
 
KNFG - Camp Pendleton, California, USA
Distance from station: NNW 37mi, 59km
Updated: Wed, 12-May-2021 12:55am PDT
Overcast
Overcast
 Wind from calm
Wind: Calm
Temperature: 64°F , 18°C
Dew Point: 54°F , 12°C
Humidity: 68%
Barometer: 29.98 inHg , 1015.2 hPa
Clouds: Overcast
Visibility: 10 miles , 16 km
Cloud details: Overcast 1500 ft
2021/05/12 07:55 KNFG 120755Z AUTO 00000KT 10SM OVC015 18/12 A2998 RMK AO2 SLP150 T01780122 402280111
KRIV - Riverside/March, California, USA
Distance from station: N 74mi, 119km
Updated: Wed, 12-May-2021 12:58am PDT
Clear
Clear
 Wind from calm
Wind: Calm
Temperature: 55°F , 13°C
Dew Point: 52°F , 11°C
Humidity: 88%
Barometer: 29.98 inHg , 1015.2 hPa
Clouds: Clear
Visibility: 8 miles , 13 km
2021/05/12 07:58 KRIV 120758Z AUTO 00000KT 8SM CLR 13/11 A2998 RMK AO2 SLP144 T01270108 402810101
 
KTRM - Thermal/Palm Spg, California, USA
Distance from station: NE 75mi, 121km
Updated: Wed, 12-May-2021 12:52am PDT
Clear
Clear
 Wind from N
Wind: N 8 mph , 13 km/h
Temperature: 77°F , 25°C
Dew Point: 50°F , 10°C
Humidity: 39%
Barometer: 29.82 inHg , 1009.8 hPa
Clouds: Clear
Visibility: 10 miles , 16 km
2021/05/12 07:52 KTRM 120752Z AUTO 35007KT 10SM CLR 25/10 A2982 RMK AO2 SLP100 T02500100 403720150
KPSP - Palm Springs, California, USA
Distance from station: NNE 76mi, 122km
Updated: Wed, 12-May-2021 12:53am PDT
Clear
Clear
 Wind from WNW
Wind: WNW 3 mph , 6 km/h
Temperature: 79°F , 26°C
Dew Point: 52°F , 11°C
Humidity: 39%
Barometer: 29.88 inHg , 1011.9 hPa
Clouds: Clear
Visibility: 10 miles , 16 km
2021/05/12 07:53 KPSP 120753Z AUTO 30003KT 10SM CLR 26/11 A2988 RMK AO2 SLP113 T02560106 403720189
 
KSNA - Costa Mesa, California, USA
Distance from station: NW 76mi, 123km
Updated: Wed, 12-May-2021 12:53am PDT
Overcast
Overcast
 Wind from calm
Wind: Calm
Temperature: 64°F , 18°C
Dew Point: 55°F , 13°C
Humidity: 73%
Barometer: 29.97 inHg , 1014.9 hPa
Clouds: Overcast
Visibility: 10 miles , 16 km
Cloud details: Overcast 1700 ft
2021/05/12 07:53 KSNA 120753Z AUTO 00000KT 10SM OVC017 18/13 A2997 RMK AO2 SLP148 T01830133 402280150
KNJK - El Centro Naf, California, USA
Distance from station: E 79mi, 127km
Updated: Wed, 12-May-2021 12:56am PDT
Clear
Clear
 Wind from SSW
Wind: SSW 6 mph , 9 km/h
Temperature: 75°F , 24°C
Dew Point: 43°F , 6°C
Humidity: 31%
Barometer: 29.82 inHg , 1009.8 hPa
Clouds: Clear
Visibility: 10 miles , 16 km
2021/05/12 07:56 KNJK 120756Z AUTO 21005KT 10SM CLR 24/06 A2982 RMK AO2 SLP114 T02390061 403610156 $
 
KAJO - Corona Muni, California, USA
Distance from station: NNW 82mi, 132km
Updated: Wed, 12-May-2021 12:56am PDT
Clear
Clear
 Wind from calm
Wind: Calm
Temperature: 55°F , 13°C
Dew Point: 54°F , 12°C
Humidity: 94%
Barometer: 29.99 inHg , 1015.6 hPa
Clouds: Clear
Visibility: 10 miles , 16 km
2021/05/12 07:56 KAJO 120756Z AUTO 00000KT 10SM CLR 13/12 A2999 RMK AO2 SLP149 T01330122 402670111